createdAt,value
2018-07-13T00:01:38.471Z,81.90
2018-07-13T00:04:07.515Z,81.80
2018-07-13T00:06:36.576Z,82.40
2018-07-13T00:09:08.081Z,82.60
2018-07-13T00:11:37.415Z,82.50
2018-07-13T00:14:16.763Z,82.50
2018-07-13T00:16:46.669Z,82.80
2018-07-13T00:19:16.356Z,83.10
2018-07-13T00:21:45.424Z,83.90
2018-07-13T00:26:43.161Z,85.60
2018-07-13T00:29:12.434Z,84.90
2018-07-13T00:31:42.476Z,83.80
2018-07-13T00:34:11.513Z,83.60
2018-07-13T00:36:40.571Z,83.50
2018-07-13T00:39:11.080Z,83.50
2018-07-13T00:41:40.143Z,84.00
2018-07-13T00:44:09.470Z,83.50
2018-07-13T00:46:38.574Z,83.50
2018-07-13T00:49:07.620Z,83.50
2018-07-13T00:51:36.679Z,83.70
2018-07-13T00:54:05.740Z,83.80
2018-07-13T00:56:34.784Z,84.00
2018-07-13T00:59:03.856Z,84.20
2018-07-13T01:01:32.887Z,84.40
2018-07-13T01:04:01.943Z,84.30
2018-07-13T01:06:30.987Z,84.60
2018-07-13T01:09:00.072Z,85.00
2018-07-13T01:11:29.114Z,85.30
2018-07-13T01:13:58.184Z,85.10
2018-07-13T01:16:27.223Z,85.00
2018-07-13T01:18:56.283Z,85.40
2018-07-13T01:28:51.439Z,86.60
2018-07-13T01:33:49.175Z,88.40
2018-07-13T01:36:18.227Z,89.10
2018-07-13T01:38:47.291Z,89.20
2018-07-13T01:41:16.343Z,89.50
2018-07-13T01:43:45.420Z,89.50
2018-07-13T01:46:14.467Z,90.00
2018-07-13T01:48:43.549Z,89.90
2018-07-13T01:51:12.587Z,89.80
2018-07-13T01:53:41.647Z,89.80
2018-07-13T01:56:10.708Z,89.90
2018-07-13T01:58:39.775Z,90.00
2018-07-13T02:01:08.832Z,90.20
2018-07-13T02:03:37.895Z,90.10
2018-07-13T02:06:06.943Z,90.40
2018-07-13T02:08:36.036Z,90.60
2018-07-13T02:11:05.126Z,90.70
2018-07-13T02:13:34.228Z,90.80
2018-07-13T02:16:03.288Z,90.80
2018-07-13T02:18:32.347Z,90.80
2018-07-13T02:23:30.108Z,91.00
2018-07-13T02:25:59.187Z,91.10
2018-07-13T02:28:28.252Z,91.10
2018-07-13T02:30:57.324Z,91.40
2018-07-13T02:38:23.763Z,91.50
2018-07-13T02:40:52.848Z,91.70
2018-07-13T02:43:21.912Z,91.80
2018-07-13T02:45:50.995Z,91.90
2018-07-13T02:48:20.059Z,91.80
2018-07-13T02:50:49.140Z,91.70
2018-07-13T02:53:18.204Z,91.90
2018-07-13T02:55:47.289Z,92.10
2018-07-13T02:58:16.442Z,91.90
2018-07-13T03:00:45.549Z,92.00
2018-07-13T03:08:12.040Z,92.10
2018-07-13T03:10:41.110Z,92.00
2018-07-13T03:13:10.151Z,92.00
2018-07-13T03:15:39.276Z,92.00
2018-07-13T03:18:08.332Z,92.00
2018-07-13T03:20:37.401Z,92.30
2018-07-13T03:28:03.877Z,92.20
2018-07-13T03:33:01.669Z,91.70
2018-07-13T03:37:59.419Z,91.00
2018-07-13T03:40:28.492Z,90.40
2018-07-13T03:42:57.531Z,90.10
2018-07-13T03:47:55.316Z,90.30
2018-07-13T03:52:53.108Z,90.80
2018-07-13T03:55:22.232Z,91.00
2018-07-13T03:57:51.303Z,91.20
2018-07-13T04:00:20.352Z,91.20
2018-07-13T04:02:49.493Z,90.70
2018-07-13T04:05:18.539Z,90.30
2018-07-13T04:07:47.623Z,89.70
2018-07-13T04:10:16.672Z,89.10
2018-07-13T04:15:14.587Z,87.90
2018-07-13T04:17:43.656Z,87.50
2018-07-13T04:22:41.392Z,86.40
2018-07-13T04:25:10.649Z,85.80
2018-07-13T04:30:08.456Z,85.50
2018-07-13T04:32:37.520Z,85.70
2018-07-13T04:35:06.583Z,85.20
2018-07-13T04:37:35.643Z,84.70
2018-07-13T04:40:04.792Z,84.40
2018-07-13T04:42:33.888Z,83.90
2018-07-13T04:45:02.932Z,83.40
2018-07-13T04:47:31.988Z,83.20
2018-07-13T04:52:29.764Z,82.40
2018-07-13T04:54:58.799Z,81.00
2018-07-13T04:57:27.860Z,80.70
2018-07-13T05:02:26.187Z,79.30
2018-07-13T05:04:55.231Z,79.40
2018-07-13T05:07:24.315Z,79.40
2018-07-13T05:09:53.372Z,77.80
2018-07-13T05:12:22.448Z,77.70
2018-07-13T05:17:20.195Z,76.30
2018-07-13T05:19:49.256Z,76.20
2018-07-13T05:22:18.328Z,74.40
2018-07-13T05:24:47.383Z,74.10
2018-07-13T05:27:16.466Z,73.90
2018-07-13T05:29:45.847Z,74.50
2018-07-13T05:32:14.891Z,76.80
2018-07-13T05:34:43.971Z,76.60
2018-07-13T05:37:13.299Z,76.90
2018-07-13T05:39:42.380Z,75.00
2018-07-13T05:42:11.440Z,76.40
2018-07-13T05:44:40.511Z,76.10
2018-07-13T05:47:09.559Z,74.20
2018-07-13T05:49:38.632Z,74.00
2018-07-13T05:52:07.703Z,73.80
2018-07-13T05:54:36.778Z,73.30
2018-07-13T05:59:34.596Z,71.80
2018-07-13T06:02:03.672Z,71.80
2018-07-13T06:04:32.812Z,73.10
2018-07-13T06:07:01.909Z,72.90
2018-07-13T06:09:30.986Z,72.80
2018-07-13T06:12:00.497Z,72.20
2018-07-13T06:14:29.568Z,72.20
2018-07-13T06:16:58.615Z,72.60
2018-07-13T06:19:27.709Z,72.00
2018-07-13T06:21:56.769Z,70.00
2018-07-13T06:24:25.843Z,70.40
2018-07-13T06:26:54.895Z,71.00
2018-07-13T06:29:23.971Z,68.50
2018-07-13T06:31:53.032Z,66.90
2018-07-13T06:36:50.777Z,67.70
2018-07-13T06:39:19.849Z,66.40
2018-07-13T06:41:48.899Z,65.60
2018-07-13T06:49:17.017Z,64.60
2018-07-13T06:51:46.200Z,64.20
2018-07-13T06:54:15.508Z,64.80
2018-07-13T06:56:44.609Z,65.00
2018-07-13T06:59:15.173Z,64.80
2018-07-13T07:01:44.872Z,64.90
2018-07-13T07:04:36.802Z,65.30
2018-07-13T07:07:10.424Z,65.70
2018-07-13T07:09:40.320Z,65.70
2018-07-13T07:13:18.259Z,65.00
2018-07-13T07:15:47.096Z,65.90
2018-07-13T07:18:16.152Z,65.30
2018-07-13T07:20:45.289Z,64.90
2018-07-13T07:25:43.040Z,63.80
2018-07-13T07:28:12.091Z,65.60
2018-07-13T07:30:41.217Z,65.60
2018-07-13T07:33:10.243Z,64.00
2018-07-13T07:35:39.316Z,64.70
2018-07-13T07:38:08.371Z,63.20
2018-07-13T07:40:37.464Z,63.80
2018-07-13T07:43:06.535Z,62.30
2018-07-13T07:45:35.607Z,57.80
2018-07-13T07:48:04.747Z,57.20
2018-07-13T07:50:33.824Z,57.20
2018-07-13T07:53:02.863Z,56.00
2018-07-13T07:55:31.924Z,56.20
2018-07-13T08:02:58.360Z,54.10
2018-07-13T08:05:27.453Z,54.30
2018-07-13T08:07:56.575Z,55.40
2018-07-13T08:10:25.619Z,53.70
2018-07-13T08:12:55.684Z,52.80
2018-07-13T08:15:24.753Z,52.70
2018-07-13T08:17:53.812Z,53.30
2018-07-13T08:20:26.375Z,54.10
2018-07-13T08:22:57.131Z,52.60
2018-07-13T08:25:27.660Z,52.40
2018-07-13T08:28:00.456Z,51.20
2018-07-13T08:30:38.119Z,51.70
2018-07-13T08:33:07.175Z,50.60
2018-07-13T08:35:36.284Z,51.10
2018-07-13T08:38:05.740Z,49.60
2018-07-13T08:40:34.779Z,51.10
2018-07-13T08:43:03.859Z,50.30
2018-07-13T08:45:32.932Z,49.30
2018-07-13T08:48:02.000Z,50.10
2018-07-13T08:53:00.142Z,48.50
2018-07-13T08:55:29.411Z,50.00
2018-07-13T08:57:58.683Z,50.80
2018-07-13T09:00:27.736Z,49.20
2018-07-13T09:02:56.812Z,48.30
2018-07-13T09:05:25.868Z,49.20
2018-07-13T09:07:55.038Z,47.10
2018-07-13T09:10:24.083Z,47.00
2018-07-13T09:12:53.212Z,45.70
2018-07-13T09:20:19.572Z,46.60
2018-07-13T09:22:48.632Z,42.50
2018-07-13T09:27:46.361Z,39.40
2018-07-13T09:30:15.408Z,39.00
2018-07-13T09:32:44.488Z,38.30
2018-07-13T09:35:13.568Z,39.10
2018-07-13T09:37:42.620Z,38.40
2018-07-13T09:40:11.708Z,38.90
2018-07-13T09:42:40.751Z,39.80
2018-07-13T09:45:09.807Z,39.90
2018-07-13T09:47:38.851Z,40.10
2018-07-13T09:50:07.911Z,40.20
2018-07-13T09:52:36.951Z,39.60
2018-07-13T09:55:06.092Z,40.30
2018-07-13T09:57:35.148Z,39.20
2018-07-13T10:00:04.284Z,39.20
2018-07-13T10:02:33.333Z,38.60
2018-07-13T10:05:02.414Z,39.80
2018-07-13T10:07:31.477Z,39.40
2018-07-13T10:10:00.542Z,38.50
2018-07-13T10:12:29.597Z,38.40
2018-07-13T10:14:58.663Z,39.30
2018-07-13T10:17:27.722Z,38.90
2018-07-13T10:19:56.793Z,38.10
2018-07-13T10:22:27.591Z,38.10
2018-07-13T10:24:59.151Z,38.30
2018-07-13T10:27:31.012Z,37.40
2018-07-13T10:30:01.457Z,37.10
2018-07-13T10:32:31.127Z,36.70
2018-07-13T10:35:01.775Z,35.40
2018-07-13T10:37:31.240Z,35.80
2018-07-13T10:40:01.095Z,34.40
2018-07-13T10:42:30.135Z,34.50
2018-07-13T10:44:59.203Z,34.30
2018-07-13T10:47:28.247Z,35.40
2018-07-13T10:52:26.019Z,35.20
2018-07-13T10:54:55.088Z,34.50
2018-07-13T10:57:24.139Z,35.70
2018-07-13T10:59:53.216Z,36.10
2018-07-13T11:02:22.255Z,36.60
2018-07-13T11:04:51.300Z,36.30
2018-07-13T11:07:20.404Z,37.20
2018-07-13T11:09:49.462Z,37.10
2018-07-13T11:12:18.537Z,37.70
2018-07-13T11:14:47.593Z,37.20
2018-07-13T11:17:16.669Z,35.90
2018-07-13T11:19:45.728Z,35.10
2018-07-13T11:22:14.804Z,35.40
2018-07-13T11:24:43.851Z,34.30
2018-07-13T11:27:12.923Z,34.30
2018-07-13T11:29:41.998Z,33.40
2018-07-13T11:32:11.523Z,34.10
2018-07-13T11:34:40.572Z,33.70
2018-07-13T11:39:38.348Z,33.70
2018-07-13T11:42:07.419Z,33.00
2018-07-13T11:44:36.500Z,33.60
2018-07-13T11:47:05.579Z,34.00
2018-07-13T11:49:35.479Z,31.80
2018-07-13T11:52:04.599Z,33.00
2018-07-13T11:54:33.639Z,33.10
2018-07-13T11:57:02.707Z,33.30
2018-07-13T11:59:31.768Z,33.10
2018-07-13T12:02:00.840Z,32.60
2018-07-13T12:06:58.648Z,31.70
2018-07-13T12:09:27.700Z,31.80
2018-07-13T12:14:25.548Z,31.40
2018-07-13T12:16:55.793Z,32.20
2018-07-13T12:19:25.320Z,31.30
2018-07-13T12:21:54.363Z,31.30
2018-07-13T12:24:23.432Z,31.60
2018-07-13T12:29:21.173Z,31.10
2018-07-13T12:31:50.210Z,30.00
2018-07-13T12:36:47.953Z,29.70
2018-07-13T12:39:17.053Z,29.90
2018-07-13T12:41:46.108Z,29.10
2018-07-13T12:44:15.174Z,30.00
2018-07-13T12:49:13.303Z,29.40
2018-07-13T12:51:42.591Z,29.20
2018-07-13T12:54:11.909Z,29.60
2018-07-13T12:56:40.911Z,29.90
2018-07-13T12:59:09.987Z,29.80
2018-07-13T13:01:39.035Z,30.10
2018-07-13T13:04:08.112Z,29.20
2018-07-13T13:06:37.163Z,29.00
2018-07-13T13:09:06.496Z,29.50
2018-07-13T13:11:35.543Z,30.20
2018-07-13T13:19:01.965Z,30.00
2018-07-13T13:21:31.183Z,30.00
2018-07-13T13:24:00.204Z,29.70
2018-07-13T13:28:57.968Z,28.40
2018-07-13T13:31:27.039Z,28.00
2018-07-13T13:33:56.108Z,27.40
2018-07-13T13:36:25.147Z,27.40
2018-07-13T13:38:54.219Z,26.40
2018-07-13T13:41:23.263Z,25.20
2018-07-13T13:48:49.760Z,25.00
2018-07-13T13:51:18.803Z,24.80
2018-07-13T13:53:47.848Z,24.80
2018-07-13T13:56:16.948Z,24.00
2018-07-13T13:58:45.984Z,23.70
2018-07-13T14:01:15.056Z,24.40
2018-07-13T14:03:44.112Z,24.90
2018-07-13T14:16:07.948Z,24.80
2018-07-13T14:21:05.983Z,22.70
2018-07-13T14:23:35.040Z,24.50
2018-07-13T14:31:01.501Z,28.10
2018-07-13T14:33:30.548Z,29.20
2018-07-13T14:35:59.625Z,28.40
2018-07-13T14:38:28.683Z,27.40
2018-07-13T14:40:57.755Z,26.90
2018-07-13T14:43:26.816Z,26.80
2018-07-13T14:45:55.880Z,26.40
2018-07-13T14:48:24.928Z,25.40
2018-07-13T14:50:54.004Z,25.90
2018-07-13T14:53:23.100Z,25.50
2018-07-13T14:55:52.142Z,25.20
2018-07-13T14:58:21.193Z,24.70
2018-07-13T15:00:50.255Z,25.10
2018-07-13T15:03:19.295Z,24.90
2018-07-13T15:05:48.403Z,25.30
2018-07-13T15:08:17.466Z,26.60
2018-07-13T15:10:46.549Z,28.00
2018-07-13T15:15:44.313Z,29.30
2018-07-13T15:18:13.372Z,28.40
2018-07-13T15:20:42.426Z,26.80
2018-07-13T15:23:11.499Z,25.50
2018-07-13T15:25:40.550Z,24.20
2018-07-13T15:28:09.624Z,24.10
2018-07-13T15:30:38.680Z,25.60
2018-07-13T15:33:07.768Z,25.90
2018-07-13T15:35:36.834Z,27.50
2018-07-13T15:38:05.916Z,27.80
2018-07-13T15:40:34.983Z,27.80
2018-07-13T15:45:32.747Z,26.50
2018-07-13T15:48:01.827Z,25.20
2018-07-13T15:50:30.879Z,24.00
2018-07-13T15:52:59.963Z,23.90
2018-07-13T15:58:02.109Z,24.40
2018-07-13T16:00:31.163Z,24.00
2018-07-13T16:03:00.244Z,24.60
2018-07-13T16:05:29.343Z,25.60
2018-07-13T16:07:58.412Z,25.30
2018-07-13T16:10:27.594Z,24.90
2018-07-13T16:12:56.723Z,25.80
2018-07-13T16:17:54.499Z,25.50
2018-07-13T16:20:23.539Z,25.80
2018-07-13T16:22:52.607Z,25.30
2018-07-13T16:27:50.468Z,24.80
2018-07-13T16:30:19.552Z,23.80
2018-07-13T16:32:48.627Z,24.80
2018-07-13T16:35:17.685Z,25.40
2018-07-13T16:37:46.761Z,25.00
2018-07-13T16:40:15.805Z,24.90
2018-07-13T16:42:44.982Z,25.70
2018-07-13T16:45:14.140Z,25.20
2018-07-13T16:47:43.116Z,25.20
2018-07-13T16:50:12.166Z,26.60
2018-07-13T16:52:41.254Z,26.90
2018-07-13T16:57:38.959Z,28.50
2018-07-13T17:00:08.016Z,28.50
2018-07-13T17:02:37.060Z,28.30
2018-07-13T17:05:06.119Z,28.10
2018-07-13T17:10:04.015Z,28.00
2018-07-13T17:15:01.884Z,26.60
2018-07-13T17:19:59.667Z,26.80
2018-07-13T17:22:29.635Z,26.40
2018-07-13T17:24:58.735Z,27.30
2018-07-13T17:29:56.899Z,29.80
2018-07-13T17:32:26.196Z,29.40
2018-07-13T17:34:56.059Z,29.70
2018-07-13T17:37:25.120Z,29.70
2018-07-13T17:39:54.295Z,30.60
2018-07-13T17:44:52.076Z,30.90
2018-07-13T17:47:21.150Z,31.80
2018-07-13T17:49:50.232Z,32.60
2018-07-13T17:52:19.300Z,32.90
2018-07-13T17:54:48.392Z,32.50
2018-07-13T17:57:17.455Z,32.20
2018-07-13T18:02:15.211Z,31.20
2018-07-13T18:04:44.288Z,31.30
2018-07-13T18:07:20.052Z,31.80
2018-07-13T18:09:49.138Z,32.30
2018-07-13T18:12:18.191Z,32.70
2018-07-13T18:14:47.264Z,33.10
2018-07-13T18:19:45.008Z,33.20
2018-07-13T18:22:14.059Z,32.80
2018-07-13T18:24:43.136Z,32.70
2018-07-13T18:27:12.380Z,32.60
2018-07-13T18:29:41.469Z,34.00
2018-07-13T18:32:10.522Z,35.40
2018-07-13T18:34:39.604Z,36.30
2018-07-13T18:37:08.662Z,37.80
2018-07-13T18:39:37.986Z,38.60
2018-07-13T18:42:07.127Z,39.00
2018-07-13T18:47:05.079Z,39.70
2018-07-13T18:49:34.140Z,40.90
2018-07-13T18:52:03.203Z,42.70
2018-07-13T18:57:00.979Z,46.20
2018-07-13T18:59:30.061Z,47.40
2018-07-13T19:01:59.152Z,48.40
2018-07-13T19:04:28.223Z,49.50
2018-07-13T19:06:57.300Z,50.60
2018-07-13T19:09:26.440Z,51.20
2018-07-13T19:11:55.491Z,51.70
2018-07-13T19:14:24.536Z,52.50
2018-07-13T19:16:53.595Z,52.60
2018-07-13T19:19:22.631Z,52.90
2018-07-13T19:21:51.876Z,53.70
2018-07-13T19:24:20.934Z,54.10
2018-07-13T19:26:50.004Z,54.70
2018-07-13T19:29:19.044Z,55.20
2018-07-13T19:34:16.845Z,56.10
2018-07-13T19:36:45.912Z,56.70
2018-07-13T19:39:14.947Z,57.20
2018-07-13T19:41:44.010Z,57.80
2018-07-13T19:44:13.039Z,58.00
2018-07-13T19:46:42.195Z,58.30
2018-07-13T19:49:11.176Z,58.50
2018-07-13T19:51:40.298Z,58.90
2018-07-13T19:54:09.365Z,59.30
2018-07-13T19:56:38.428Z,59.60
2018-07-13T19:59:07.494Z,59.80
2018-07-13T20:04:05.583Z,60.90
2018-07-13T20:06:34.633Z,61.50
2018-07-13T20:09:04.682Z,61.70
2018-07-13T20:11:33.754Z,62.10
2018-07-13T20:14:02.836Z,62.50
2018-07-13T20:16:31.892Z,62.90
2018-07-13T20:19:01.010Z,63.40
2018-07-13T20:21:30.093Z,63.90
2018-07-13T20:23:59.160Z,64.20
2018-07-13T20:26:28.277Z,64.70
2018-07-13T20:28:57.316Z,65.00
2018-07-13T20:31:26.367Z,65.70
2018-07-13T20:33:55.456Z,65.60
2018-07-13T20:41:21.895Z,66.80
2018-07-13T20:46:21.388Z,68.20
2018-07-13T20:48:50.464Z,68.00
2018-07-13T20:51:19.523Z,68.10
2018-07-13T20:53:48.661Z,68.70
2018-07-13T20:56:17.725Z,69.10
2018-07-13T21:01:15.495Z,69.60
2018-07-13T21:03:44.573Z,69.90
2018-07-13T21:06:13.628Z,70.20
2018-07-13T21:08:42.712Z,70.20
2018-07-13T21:11:11.768Z,70.60
2018-07-13T21:13:40.883Z,71.10
2018-07-13T21:16:09.922Z,71.30
2018-07-13T21:18:39.388Z,70.70
2018-07-13T21:23:37.134Z,71.60
2018-07-13T21:26:06.367Z,72.10
2018-07-13T21:31:04.188Z,72.10
2018-07-13T21:33:34.780Z,72.00
2018-07-13T21:36:03.818Z,72.20
2018-07-13T21:38:32.883Z,72.70
2018-07-13T21:41:01.927Z,72.80
2018-07-13T21:43:31.132Z,73.40
2018-07-13T21:46:00.190Z,73.70
2018-07-13T21:48:29.246Z,74.60
2018-07-13T21:50:58.306Z,75.70
2018-07-13T21:53:27.363Z,76.00
2018-07-13T21:58:25.179Z,77.60
2018-07-13T22:00:54.251Z,78.80
2018-07-13T22:03:23.304Z,79.10
2018-07-13T22:05:52.380Z,79.20
2018-07-13T22:08:21.456Z,79.90
2018-07-13T22:10:50.533Z,80.60
2018-07-13T22:13:19.604Z,81.00
2018-07-13T22:15:49.164Z,82.00
2018-07-13T22:18:18.211Z,82.10
2018-07-13T22:20:47.288Z,82.90
2018-07-13T22:23:16.573Z,83.10
2018-07-13T22:25:45.656Z,84.00
2018-07-13T22:28:14.711Z,84.20
2018-07-13T22:33:12.472Z,85.20
2018-07-13T22:35:41.543Z,84.90
2018-07-13T22:38:10.587Z,84.30
2018-07-13T22:43:08.508Z,85.80
2018-07-13T22:45:37.579Z,86.10
2018-07-13T22:48:06.623Z,85.40
2018-07-13T22:50:35.690Z,85.70
2018-07-13T22:53:04.760Z,85.90
2018-07-13T22:55:33.823Z,85.80
2018-07-13T22:58:02.892Z,85.70
2018-07-13T23:00:31.977Z,85.40
2018-07-13T23:03:01.025Z,85.40
2018-07-13T23:05:30.090Z,85.50
2018-07-13T23:07:59.192Z,86.80
2018-07-13T23:10:28.267Z,86.90
2018-07-13T23:12:57.324Z,86.00
2018-07-13T23:20:23.861Z,87.60
2018-07-13T23:22:53.119Z,87.90
2018-07-13T23:25:22.168Z,87.40
2018-07-13T23:27:51.247Z,88.30
2018-07-13T23:30:20.291Z,89.20
2018-07-13T23:35:18.056Z,90.50
2018-07-13T23:37:47.230Z,90.20
2018-07-13T23:40:16.320Z,90.20
2018-07-13T23:42:45.383Z,90.30
2018-07-13T23:45:14.435Z,90.30
2018-07-13T23:47:43.532Z,91.00
2018-07-13T23:50:12.612Z,90.40
2018-07-13T23:52:41.678Z,90.50
2018-07-13T23:55:10.744Z,90.70
2018-07-13T23:57:39.815Z,90.70
